createdAt,value
2022-12-17T00:00:37.484Z,87.67
2022-12-17T00:03:24.729Z,87.55
2022-12-17T00:06:11.299Z,87.86
2022-12-17T00:08:57.009Z,87.72
2022-12-17T00:11:42.995Z,87.57
2022-12-17T00:14:28.343Z,87.53
2022-12-17T00:17:13.552Z,87.54
2022-12-17T00:19:58.834Z,87.49
2022-12-17T00:22:43.999Z,87.55
2022-12-17T00:25:29.825Z,87.60
2022-12-17T00:28:14.987Z,87.88
2022-12-17T00:31:00.368Z,88.02
2022-12-17T00:33:45.687Z,88.32
2022-12-17T00:36:31.060Z,88.37
2022-12-17T00:39:16.385Z,88.52
2022-12-17T00:42:01.591Z,88.48
2022-12-17T00:44:46.899Z,89.12
2022-12-17T00:47:32.137Z,89.67
2022-12-17T00:50:17.395Z,89.06
2022-12-17T00:53:03.308Z,88.63
2022-12-17T00:55:49.040Z,88.50
2022-12-17T00:58:34.296Z,88.30
2022-12-17T01:01:20.238Z,88.25
2022-12-17T01:04:05.805Z,88.03
2022-12-17T01:06:52.054Z,87.98
2022-12-17T01:09:39.232Z,87.86
2022-12-17T01:12:26.252Z,87.74
2022-12-17T01:15:13.133Z,87.75
2022-12-17T01:17:58.295Z,87.80
2022-12-17T01:20:44.302Z,87.74
2022-12-17T01:23:30.220Z,87.52
2022-12-17T01:26:16.394Z,87.65
2022-12-17T01:29:02.406Z,87.54
2022-12-17T01:31:47.860Z,87.58
2022-12-17T01:34:37.871Z,87.51
2022-12-17T01:37:23.223Z,87.69
2022-12-17T01:40:08.459Z,87.55
2022-12-17T01:43:02.947Z,87.59
2022-12-17T01:46:00.149Z,87.60
2022-12-17T01:48:55.181Z,87.40
2022-12-17T01:51:41.737Z,87.48
2022-12-17T01:54:28.428Z,87.42
2022-12-17T01:57:14.132Z,87.35
2022-12-17T02:00:22.799Z,87.46
2022-12-17T02:03:08.773Z,87.48
2022-12-17T02:06:14.289Z,87.43
2022-12-17T02:09:13.480Z,87.47
2022-12-17T02:12:21.579Z,87.50
2022-12-17T02:15:37.675Z,87.23
2022-12-17T02:18:31.466Z,87.37
2022-12-17T02:21:19.448Z,87.62
2022-12-17T02:24:30.784Z,87.52
2022-12-17T02:27:21.494Z,87.40
2022-12-17T02:30:12.317Z,87.48
2022-12-17T02:33:02.440Z,87.29
2022-12-17T02:35:54.219Z,87.43
2022-12-17T02:38:45.780Z,87.39
2022-12-17T02:41:47.370Z,87.27
2022-12-17T02:44:38.002Z,87.29
2022-12-17T02:47:28.269Z,87.44
2022-12-17T02:50:14.775Z,87.42
2022-12-17T02:53:05.818Z,87.46
2022-12-17T02:55:53.279Z,87.32
2022-12-17T02:58:39.328Z,87.29
2022-12-17T03:01:25.352Z,87.01
2022-12-17T03:04:10.683Z,87.51
2022-12-17T03:06:56.022Z,87.40
2022-12-17T03:09:41.813Z,87.28
2022-12-17T03:12:28.223Z,87.47
2022-12-17T03:15:13.462Z,87.37
2022-12-17T03:17:59.298Z,87.25
2022-12-17T03:20:45.080Z,87.14
2022-12-17T03:23:30.891Z,87.00
2022-12-17T03:26:21.655Z,87.29
2022-12-17T03:29:07.583Z,87.33
2022-12-17T03:31:53.275Z,87.24
2022-12-17T03:34:38.508Z,87.13
2022-12-17T03:37:25.627Z,87.39
2022-12-17T03:40:11.083Z,87.25
2022-12-17T03:42:56.417Z,87.33
2022-12-17T03:45:42.319Z,87.44
2022-12-17T03:48:31.043Z,87.26
2022-12-17T03:51:17.683Z,87.36
2022-12-17T03:54:04.047Z,87.14
2022-12-17T03:56:50.301Z,87.17
2022-12-17T03:59:35.527Z,87.19
2022-12-17T04:02:21.052Z,87.15
2022-12-17T04:05:06.780Z,87.21
2022-12-17T04:07:52.092Z,87.26
2022-12-17T04:10:37.815Z,87.15
2022-12-17T04:13:23.688Z,87.09
2022-12-17T04:16:09.028Z,87.29
2022-12-17T04:18:54.476Z,87.20
2022-12-17T04:21:39.923Z,87.03
2022-12-17T04:24:25.789Z,87.05
2022-12-17T04:27:11.088Z,87.13
2022-12-17T04:29:56.421Z,87.17
2022-12-17T04:32:41.679Z,87.00
2022-12-17T04:35:26.967Z,87.04
2022-12-17T04:38:12.789Z,87.12
2022-12-17T04:40:58.318Z,87.08
2022-12-17T04:43:43.473Z,87.08
2022-12-17T04:46:28.915Z,87.24
2022-12-17T04:49:15.994Z,87.26
2022-12-17T04:52:01.808Z,87.17
2022-12-17T04:54:47.044Z,87.20
2022-12-17T04:57:32.791Z,87.16
2022-12-17T05:00:18.501Z,87.00
2022-12-17T05:03:03.857Z,87.08
2022-12-17T05:05:49.241Z,86.97
2022-12-17T05:08:39.625Z,86.99
2022-12-17T05:11:27.181Z,86.89
2022-12-17T05:14:12.480Z,86.85
2022-12-17T05:16:57.799Z,86.97
2022-12-17T05:19:43.140Z,86.80
2022-12-17T05:22:28.404Z,86.82
2022-12-17T05:25:13.801Z,86.76
2022-12-17T05:27:59.034Z,86.83
2022-12-17T05:30:44.310Z,86.73
2022-12-17T05:33:29.580Z,86.67
2022-12-17T05:36:21.984Z,86.84
2022-12-17T05:39:12.913Z,86.64
2022-12-17T05:41:58.263Z,86.59
2022-12-17T05:44:46.661Z,86.69
2022-12-17T05:47:31.878Z,86.75
2022-12-17T05:50:17.199Z,86.53
2022-12-17T05:53:02.418Z,86.69
2022-12-17T05:55:47.673Z,86.76
2022-12-17T05:58:33.010Z,86.46
2022-12-17T06:01:22.795Z,86.43
2022-12-17T06:04:08.667Z,86.54
2022-12-17T06:06:54.547Z,86.76
2022-12-17T06:09:39.694Z,86.54
2022-12-17T06:12:25.635Z,86.67
2022-12-17T06:15:11.029Z,86.64
2022-12-17T06:17:56.128Z,86.51
2022-12-17T06:20:41.327Z,86.67
2022-12-17T06:23:29.541Z,86.41
2022-12-17T06:26:16.229Z,86.49
2022-12-17T06:29:02.565Z,86.51
2022-12-17T06:31:47.845Z,86.32
2022-12-17T06:34:33.185Z,86.34
2022-12-17T06:37:18.611Z,86.53
2022-12-17T06:40:04.329Z,86.46
2022-12-17T06:42:50.120Z,86.44
2022-12-17T06:45:35.480Z,86.47
2022-12-17T06:48:22.930Z,86.43
2022-12-17T06:51:08.953Z,86.52
2022-12-17T06:53:54.246Z,86.33
2022-12-17T06:56:39.630Z,86.59
2022-12-17T06:59:24.753Z,86.52
2022-12-17T07:02:10.083Z,86.42
2022-12-17T07:04:55.569Z,86.41
2022-12-17T07:07:40.921Z,86.43
2022-12-17T07:10:26.599Z,86.38
2022-12-17T07:13:11.941Z,86.33
2022-12-17T07:15:57.749Z,86.57
2022-12-17T07:18:43.078Z,86.36
2022-12-17T07:21:28.413Z,86.46
2022-12-17T07:24:13.698Z,86.46
2022-12-17T07:26:58.921Z,86.36
2022-12-17T07:29:44.228Z,86.71
2022-12-17T07:32:29.604Z,86.53
2022-12-17T07:35:14.841Z,86.41
2022-12-17T07:38:00.124Z,86.43
2022-12-17T07:40:45.494Z,86.62
2022-12-17T07:43:32.693Z,86.51
2022-12-17T07:46:18.589Z,86.51
2022-12-17T07:49:03.887Z,86.55
2022-12-17T07:51:49.689Z,86.72
2022-12-17T07:54:35.383Z,86.63
2022-12-17T07:57:21.128Z,86.25
2022-12-17T08:00:06.461Z,86.88
2022-12-17T08:02:52.285Z,87.09
2022-12-17T08:05:37.749Z,87.13
2022-12-17T08:08:28.109Z,87.25
2022-12-17T08:11:13.944Z,87.18
2022-12-17T08:13:59.738Z,87.44
2022-12-17T08:16:45.576Z,87.55
2022-12-17T08:19:31.382Z,87.95
2022-12-17T08:22:16.702Z,88.17
2022-12-17T08:25:02.123Z,88.51
2022-12-17T08:27:47.429Z,88.83
2022-12-17T08:30:32.943Z,89.01
2022-12-17T08:33:25.485Z,88.92
2022-12-17T08:36:15.889Z,89.00
2022-12-17T08:39:02.168Z,89.17
2022-12-17T08:41:54.017Z,89.14
2022-12-17T08:44:40.464Z,89.16
2022-12-17T08:47:25.825Z,88.96
2022-12-17T08:50:11.083Z,89.38
2022-12-17T08:52:56.869Z,89.30
2022-12-17T08:55:42.268Z,89.73
2022-12-17T08:58:27.737Z,89.69
2022-12-17T09:01:16.597Z,89.92
2022-12-17T09:04:03.505Z,89.95
2022-12-17T09:06:49.431Z,90.05
2022-12-17T09:09:34.753Z,90.06
2022-12-17T09:12:20.077Z,89.91
2022-12-17T09:15:05.373Z,89.93
2022-12-17T09:17:50.722Z,90.09
2022-12-17T09:20:36.416Z,90.12
2022-12-17T09:23:22.317Z,89.96
2022-12-17T09:26:14.243Z,90.06
2022-12-17T09:29:02.157Z,90.19
2022-12-17T09:31:50.286Z,90.05
2022-12-17T09:34:36.496Z,90.16
2022-12-17T09:37:22.627Z,90.08
2022-12-17T09:40:08.289Z,90.26
2022-12-17T09:43:25.408Z,90.17
2022-12-17T09:46:54.537Z,90.46
2022-12-17T09:49:45.469Z,90.64
2022-12-17T09:52:45.619Z,90.97
2022-12-17T09:55:44.524Z,90.34
2022-12-17T09:58:48.704Z,90.48
2022-12-17T10:01:54.951Z,90.76
2022-12-17T10:04:59.112Z,90.81
2022-12-17T10:07:52.351Z,90.89
2022-12-17T10:10:48.525Z,91.07
2022-12-17T10:13:38.502Z,91.32
2022-12-17T10:16:48.119Z,91.38
2022-12-17T10:19:55.449Z,91.37
2022-12-17T10:22:41.625Z,91.50
2022-12-17T10:25:41.071Z,91.73
2022-12-17T10:28:39.981Z,91.93
2022-12-17T10:31:35.076Z,91.81
2022-12-17T10:34:20.967Z,91.88
2022-12-17T10:37:09.959Z,91.90
2022-12-17T10:39:56.223Z,92.11
2022-12-17T10:42:57.697Z,92.04
2022-12-17T10:45:45.233Z,91.88
2022-12-17T10:48:43.891Z,92.25
2022-12-17T10:51:49.471Z,92.41
2022-12-17T10:54:52.510Z,92.55
2022-12-17T10:57:55.608Z,92.71
2022-12-17T11:00:52.759Z,92.76
2022-12-17T11:03:47.218Z,92.96
2022-12-17T11:06:42.668Z,93.12
2022-12-17T11:10:12.543Z,93.42
2022-12-17T11:13:14.573Z,93.50
2022-12-17T11:16:09.656Z,93.75
2022-12-17T11:18:58.040Z,93.33
2022-12-17T11:22:14.733Z,93.54
2022-12-17T11:25:07.880Z,93.43
2022-12-17T11:28:25.856Z,93.67
2022-12-17T11:31:31.522Z,93.74
2022-12-17T11:35:08.834Z,93.98
2022-12-17T11:38:42.721Z,93.78
2022-12-17T11:42:17.876Z,93.81
2022-12-17T11:45:38.407Z,93.92
2022-12-17T11:48:49.315Z,93.88
2022-12-17T11:51:44.251Z,93.93
2022-12-17T11:54:43.772Z,93.93
2022-12-17T11:57:36.152Z,94.03
2022-12-17T12:00:42.361Z,93.89
2022-12-17T12:04:01.051Z,93.63
2022-12-17T12:06:55.301Z,93.57
2022-12-17T12:09:51.843Z,93.68
2022-12-17T12:12:56.501Z,94.15
2022-12-17T12:16:07.388Z,93.85
2022-12-17T12:19:08.096Z,93.75
2022-12-17T12:22:03.648Z,93.46
2022-12-17T12:25:14.331Z,93.25
2022-12-17T12:28:05.278Z,93.56
2022-12-17T12:31:21.746Z,93.71
2022-12-17T12:34:19.069Z,93.43
2022-12-17T12:37:07.493Z,93.46
2022-12-17T12:40:20.359Z,93.68
2022-12-17T12:43:36.269Z,93.89
2022-12-17T12:46:41.382Z,94.10
2022-12-17T12:49:44.117Z,94.11
2022-12-17T12:52:37.321Z,94.08
2022-12-17T12:55:23.548Z,93.93
2022-12-17T12:58:18.186Z,94.05
2022-12-17T13:01:06.247Z,93.72
2022-12-17T13:04:08.761Z,93.72
2022-12-17T13:06:55.962Z,93.75
2022-12-17T13:09:34.167Z,93.59
2022-12-17T13:12:05.141Z,93.32
2022-12-17T13:14:48.187Z,93.21
2022-12-17T13:17:14.966Z,92.95
2022-12-17T13:19:58.076Z,93.27
2022-12-17T13:22:30.110Z,93.32
2022-12-17T13:25:17.298Z,93.86
2022-12-17T13:27:45.301Z,93.79
2022-12-17T13:30:18.847Z,94.19
2022-12-17T13:33:39.840Z,94.36
2022-12-17T13:36:30.322Z,94.17
2022-12-17T13:39:23.876Z,94.11
2022-12-17T13:41:56.990Z,93.81
2022-12-17T13:44:44.822Z,93.61
2022-12-17T13:47:23.070Z,93.32
2022-12-17T13:50:31.674Z,93.38
2022-12-17T13:52:43.434Z,93.31
2022-12-17T13:55:29.184Z,93.26
2022-12-17T13:57:56.637Z,93.17
2022-12-17T14:00:28.687Z,92.89
2022-12-17T14:02:55.725Z,92.81
2022-12-17T14:05:37.856Z,92.92
2022-12-17T14:08:05.967Z,92.71
2022-12-17T14:10:33.471Z,92.64
2022-12-17T14:13:13.654Z,92.77
2022-12-17T14:15:48.199Z,92.62
2022-12-17T14:18:20.653Z,92.40
2022-12-17T14:20:50.441Z,92.43
2022-12-17T14:23:31.302Z,92.57
2022-12-17T14:25:59.022Z,92.24
2022-12-17T14:28:34.881Z,92.37
2022-12-17T14:31:26.775Z,92.34
2022-12-17T14:34:07.262Z,92.35
2022-12-17T14:36:37.658Z,92.18
2022-12-17T14:39:29.983Z,92.31
2022-12-17T14:42:26.688Z,92.04
2022-12-17T14:45:02.803Z,92.03
2022-12-17T14:47:33.303Z,91.92
2022-12-17T14:50:13.542Z,91.89
2022-12-17T14:52:50.091Z,91.96
2022-12-17T14:55:32.012Z,91.85
2022-12-17T14:58:14.036Z,91.61
2022-12-17T15:00:46.324Z,91.65
2022-12-17T15:03:29.113Z,91.63
2022-12-17T15:06:06.927Z,91.44
2022-12-17T15:08:41.455Z,91.62
2022-12-17T15:11:16.990Z,91.43
2022-12-17T15:13:44.159Z,91.34
2022-12-17T15:16:11.943Z,91.34
2022-12-17T15:18:39.315Z,91.10
2022-12-17T15:21:06.760Z,91.13
2022-12-17T15:23:33.704Z,90.95
2022-12-17T15:26:00.692Z,91.03
2022-12-17T15:28:27.725Z,90.98
2022-12-17T15:30:54.768Z,90.98
2022-12-17T15:33:22.017Z,90.74
2022-12-17T15:35:49.000Z,90.88
2022-12-17T15:38:15.990Z,90.75
2022-12-17T15:40:42.971Z,90.93
2022-12-17T15:43:11.952Z,90.77
2022-12-17T15:45:50.995Z,90.64
2022-12-17T15:48:23.348Z,90.57
2022-12-17T15:50:50.542Z,90.47
2022-12-17T15:53:17.536Z,90.52
2022-12-17T15:55:44.547Z,90.34
2022-12-17T15:58:11.684Z,90.37
2022-12-17T16:00:38.882Z,90.21
2022-12-17T16:03:06.419Z,90.32
2022-12-17T16:05:33.479Z,90.13
2022-12-17T16:08:02.336Z,89.96
2022-12-17T16:10:30.250Z,90.08
2022-12-17T16:12:57.786Z,90.05
2022-12-17T16:15:24.950Z,89.94
2022-12-17T16:17:51.919Z,90.04
2022-12-17T16:20:20.058Z,89.80
2022-12-17T16:22:47.079Z,89.53
2022-12-17T16:25:14.235Z,89.69
2022-12-17T16:27:41.264Z,89.58
2022-12-17T16:30:11.075Z,89.46
2022-12-17T16:32:38.754Z,89.59
2022-12-17T16:35:06.614Z,89.50
2022-12-17T16:37:33.601Z,89.38
2022-12-17T16:40:00.864Z,89.22
2022-12-17T16:42:28.308Z,89.21
2022-12-17T16:44:55.334Z,89.20
2022-12-17T16:47:22.344Z,89.29
2022-12-17T16:49:50.871Z,89.23
2022-12-17T16:52:17.943Z,89.30
2022-12-17T16:54:44.898Z,89.16
2022-12-17T16:57:11.854Z,89.10
2022-12-17T16:59:38.830Z,89.28
2022-12-17T17:02:11.766Z,89.31
2022-12-17T17:04:39.188Z,89.20
2022-12-17T17:07:06.342Z,89.21
2022-12-17T17:09:33.451Z,89.28
2022-12-17T17:12:00.377Z,89.28
2022-12-17T17:14:27.470Z,89.08
2022-12-17T17:16:54.452Z,89.19
2022-12-17T17:19:21.405Z,89.17
2022-12-17T17:21:54.043Z,89.06
2022-12-17T17:24:25.335Z,89.10
2022-12-17T17:26:53.738Z,89.22
2022-12-17T17:29:22.092Z,89.21
2022-12-17T17:34:38.326Z,89.01
2022-12-17T17:37:05.235Z,88.98
2022-12-17T17:39:34.033Z,89.19
2022-12-17T17:42:01.775Z,89.06
2022-12-17T17:44:28.696Z,89.05
2022-12-17T17:46:55.656Z,89.04
2022-12-17T17:49:22.788Z,89.01
2022-12-17T17:54:39.303Z,88.90
2022-12-17T17:57:06.361Z,89.08
2022-12-17T17:59:34.421Z,88.86
2022-12-17T18:02:02.725Z,88.93
2022-12-17T18:04:30.491Z,88.88
2022-12-17T18:09:44.324Z,88.76
2022-12-17T18:12:30.116Z,88.79
2022-12-17T18:15:13.679Z,88.72
2022-12-17T18:17:41.848Z,88.64
2022-12-17T18:20:10.075Z,88.60
2022-12-17T18:22:37.816Z,88.77
2022-12-17T18:25:05.715Z,88.81
2022-12-17T18:27:32.688Z,88.74
2022-12-17T18:29:59.656Z,88.55
2022-12-17T18:32:26.599Z,88.72
2022-12-17T18:34:53.633Z,88.68
2022-12-17T18:37:20.716Z,88.60
2022-12-17T18:39:48.946Z,88.61
2022-12-17T18:42:34.456Z,88.67
2022-12-17T18:45:01.906Z,88.75
2022-12-17T18:47:29.009Z,88.60
2022-12-17T18:49:55.994Z,88.63
2022-12-17T18:52:24.625Z,88.72
2022-12-17T18:54:51.648Z,88.68
2022-12-17T18:57:18.623Z,88.53
2022-12-17T18:59:45.694Z,88.58
2022-12-17T19:02:13.964Z,88.46
2022-12-17T19:04:41.773Z,88.75
2022-12-17T19:07:09.388Z,88.65
2022-12-17T19:09:38.307Z,88.60
2022-12-17T19:12:08.324Z,88.47
2022-12-17T19:14:36.303Z,88.69
2022-12-17T19:17:04.999Z,88.66
2022-12-17T19:19:33.143Z,88.47
2022-12-17T19:22:00.321Z,88.49
2022-12-17T19:24:27.646Z,88.53
2022-12-17T19:26:54.703Z,88.49
2022-12-17T19:29:22.675Z,88.52
2022-12-17T19:31:49.837Z,88.50
2022-12-17T19:34:18.958Z,88.57
2022-12-17T19:36:47.171Z,88.19
2022-12-17T19:39:18.309Z,88.16
2022-12-17T19:41:45.191Z,88.17
2022-12-17T19:44:15.154Z,88.18
2022-12-17T19:46:43.440Z,88.13
2022-12-17T19:49:13.472Z,88.27
2022-12-17T19:51:42.961Z,88.35
2022-12-17T19:54:15.019Z,88.38
2022-12-17T19:56:44.715Z,88.40
2022-12-17T19:59:13.706Z,88.32
2022-12-17T20:01:46.442Z,88.48
2022-12-17T20:04:16.165Z,88.36
2022-12-17T20:06:44.646Z,88.41
2022-12-17T20:09:12.332Z,88.39
2022-12-17T20:11:39.579Z,88.31
2022-12-17T20:14:22.444Z,88.17
2022-12-17T20:16:58.492Z,88.20
2022-12-17T20:19:33.437Z,88.11
2022-12-17T20:22:02.555Z,88.12
2022-12-17T20:24:32.015Z,88.18
2022-12-17T20:27:00.730Z,88.02
2022-12-17T20:29:29.407Z,88.20
2022-12-17T20:31:56.539Z,88.14
2022-12-17T20:34:24.516Z,88.05
2022-12-17T20:36:53.456Z,88.15
2022-12-17T20:39:26.668Z,88.20
2022-12-17T20:41:56.456Z,88.02
2022-12-17T20:44:23.475Z,88.10
2022-12-17T20:46:50.399Z,88.17
2022-12-17T20:49:17.318Z,88.24
2022-12-17T20:51:44.302Z,88.31
2022-12-17T20:54:11.588Z,88.38
2022-12-17T20:56:39.859Z,88.15
2022-12-17T20:59:13.027Z,88.24
2022-12-17T21:01:40.616Z,88.06
2022-12-17T21:04:08.224Z,88.08
2022-12-17T21:06:47.337Z,88.07
2022-12-17T21:09:18.007Z,87.98
2022-12-17T21:11:44.982Z,88.20
2022-12-17T21:14:16.637Z,88.10
2022-12-17T21:16:44.441Z,87.99
2022-12-17T21:19:17.688Z,88.12
2022-12-17T21:21:45.161Z,88.02
2022-12-17T21:24:12.189Z,88.00
2022-12-17T21:26:42.241Z,88.13
2022-12-17T21:29:09.920Z,88.23
2022-12-17T21:31:44.369Z,88.10
2022-12-17T21:34:16.172Z,87.99
2022-12-17T21:36:44.040Z,88.04
2022-12-17T21:39:13.574Z,88.16
2022-12-17T21:41:45.095Z,88.04
2022-12-17T21:44:13.884Z,88.08
2022-12-17T21:46:42.951Z,87.98
2022-12-17T21:49:10.605Z,88.03
2022-12-17T21:51:38.014Z,88.07
2022-12-17T21:54:08.406Z,88.11
2022-12-17T21:56:36.201Z,88.04
2022-12-17T21:59:03.551Z,87.87
2022-12-17T22:01:33.625Z,88.03
2022-12-17T22:04:04.122Z,88.16
2022-12-17T22:06:42.485Z,88.09
2022-12-17T22:09:20.967Z,88.02
2022-12-17T22:12:22.202Z,87.99
2022-12-17T22:14:49.279Z,87.96
2022-12-17T22:17:16.239Z,87.97
2022-12-17T22:19:43.154Z,87.94
2022-12-17T22:22:10.245Z,88.03
2022-12-17T22:24:37.355Z,88.00
2022-12-17T22:27:05.140Z,87.98
2022-12-17T22:29:55.653Z,87.97
2022-12-17T22:32:41.562Z,87.91
2022-12-17T22:36:25.384Z,88.01
2022-12-17T22:42:20.635Z,88.16
2022-12-17T22:44:37.653Z,88.07
2022-12-17T22:44:43.848Z,87.88
2022-12-17T22:46:17.808Z,87.94
2022-12-17T22:48:45.253Z,88.24
2022-12-17T22:51:15.452Z,88.10
2022-12-17T22:53:47.197Z,88.01
2022-12-17T22:56:26.082Z,88.06
2022-12-17T22:59:02.037Z,88.00
2022-12-17T23:01:29.086Z,87.88
2022-12-17T23:03:58.613Z,88.09
2022-12-17T23:06:26.973Z,88.09
2022-12-17T23:08:54.117Z,87.91
2022-12-17T23:11:25.064Z,88.01
2022-12-17T23:13:53.694Z,87.87
2022-12-17T23:16:20.993Z,87.90
2022-12-17T23:18:50.602Z,87.99
2022-12-17T23:21:24.972Z,88.09
2022-12-17T23:23:53.905Z,88.08
2022-12-17T23:26:33.621Z,87.96
2022-12-17T23:29:07.086Z,88.04
2022-12-17T23:31:38.429Z,88.05
2022-12-17T23:34:05.818Z,87.86
2022-12-17T23:36:33.478Z,87.89
2022-12-17T23:39:00.813Z,87.97
2022-12-17T23:41:30.337Z,87.84
2022-12-17T23:43:58.411Z,87.93
2022-12-17T23:46:28.398Z,87.97
2022-12-17T23:48:55.850Z,87.94
2022-12-17T23:51:25.941Z,87.85
2022-12-17T23:53:53.061Z,87.77
2022-12-17T23:56:26.452Z,87.96
2022-12-17T23:59:00.305Z,87.97
